Time;durP1;ratioP1;P1;durP2;ratioP2;P2;SDS_P1;SDS_P2;PMS_P1;PMS_P2;Temp;Humidity;BMP_temperature;BMP_pressure;BME280_temperature;BME280_humidity;BME280_pressure;Samples;Min_cycle;Max_cycle;Signal;HPM_P1;HPM_P2
2021/12/31 00:00:55;;;;;;;;;;;;;;;15.82;43.39;99562.22;4483588;32;33385;-86
2021/12/31 00:03:23;;;;;;;;;;;;;;;15.90;43.22;99567.44;4483728;32;34075;-83
2021/12/31 00:05:50;;;;;;;;;;;;;;;15.99;42.97;99571.78;4477059;32;35110;-85
2021/12/31 00:08:17;;;;;;;;;;;;;;;16.01;42.89;99578.72;4468169;32;34568;-84
2021/12/31 00:10:44;;;;;;;;;;;;;;;15.96;42.96;99583.13;4466789;32;33389;-86
2021/12/31 00:13:11;;;;;;;;;;;;;;;16.00;42.93;99594.44;4468263;32;34160;-85
2021/12/31 00:15:39;;;;;;;;;;;;;;;15.86;43.26;99589.22;4466650;32;35144;-85
2021/12/31 00:18:06;;;;;;;;;;;;;;;16.02;42.96;99590.06;4479127;32;34182;-84
2021/12/31 00:20:34;;;;;;;;;;;;;;;15.92;43.13;99581.37;4483029;31;34404;-85
2021/12/31 00:23:05;;;;;;;;;;;;;;;15.97;43.03;99579.63;4483399;32;32576;-83
2021/12/31 00:25:34;;;;;;;;;;;;;;;15.95;43.09;99578.78;4483607;32;35421;-85
2021/12/31 00:28:01;;;;;;;;;;;;;;;15.64;43.73;99580.50;4482376;32;34049;-85
2021/12/31 00:30:29;;;;;;;;;;;;;;;15.93;43.14;99577.88;4478891;32;33450;-89
2021/12/31 00:32:56;;;;;;;;;;;;;;;15.48;44.24;99569.19;4480724;32;34013;-85
2021/12/31 00:35:27;;;;;;;;;;;;;;;15.05;45.07;99573.56;4471983;32;34567;-85
2021/12/31 00:37:55;;;;;;;;;;;;;;;14.97;45.71;99575.28;4467907;32;34736;-86
2021/12/31 00:40:31;;;;;;;;;;;;;;;15.46;44.60;99577.94;4471039;32;33044;-86
2021/12/31 00:42:58;;;;;;;;;;;;;;;15.52;44.41;99581.37;4474742;32;34992;-84
2021/12/31 00:45:25;;;;;;;;;;;;;;;15.37;44.65;99581.41;4483241;32;33660;-83
2021/12/31 00:47:53;;;;;;;;;;;;;;;14.99;45.55;99577.00;4482970;31;34369;-85
2021/12/31 00:50:20;;;;;;;;;;;;;;;14.69;46.54;99574.34;4483393;32;33716;-85
2021/12/31 00:52:47;;;;;;;;;;;;;;;15.08;45.40;99584.88;4483562;32;35010;-84
2021/12/31 00:55:15;;;;;;;;;;;;;;;14.51;46.82;99591.72;4483507;32;35409;-85
2021/12/31 00:57:42;;;;;;;;;;;;;;;14.07;48.06;99592.34;4483688;32;35028;-86
2021/12/31 01:00:10;;;;;;;;;;;;;;;14.67;46.71;99589.16;4482814;32;32792;-84
2021/12/31 01:02:39;;;;;;;;;;;;;;;14.86;46.19;99592.69;4483462;32;34953;-86
2021/12/31 01:05:06;;;;;;;;;;;;;;;14.65;46.67;99586.50;4483563;32;35221;-85
2021/12/31 01:07:34;;;;;;;;;;;;;;;14.92;46.05;99592.66;4483378;32;34272;-85
2021/12/31 01:10:02;;;;;;;;;;;;;;;14.88;46.41;99591.78;4482987;32;33402;-86
2021/12/31 01:12:29;;;;;;;;;;;;;;;14.89;46.46;99593.56;4481268;32;35128;-85
2021/12/31 01:15:07;;;;;;;;;;;;;;;14.69;46.67;99592.62;4483148;32;33747;-83
2021/12/31 01:20:07;;;;;;;;;;;;;;;14.97;46.45;99597.06;4482563;32;33236;-83
2021/12/31 01:22:35;;;;;;;;;;;;;;;15.44;45.33;99593.59;4483124;32;32457;-86
2021/12/31 01:25:04;;;;;;;;;;;;;;;15.61;44.82;99590.09;4483532;31;34040;-85
2021/12/31 01:27:31;;;;;;;;;;;;;;;15.25;45.48;99604.91;4483074;32;33479;-85
2021/12/31 01:29:59;;;;;;;;;;;;;;;15.20;45.81;99594.47;4481554;32;33436;-85
2021/12/31 01:32:26;;;;;;;;;;;;;;;15.57;44.82;99597.97;4482910;32;34212;-85
2021/12/31 01:34:53;;;;;;;;;;;;;;;15.71;44.55;99602.31;4483112;32;34019;-85
2021/12/31 01:37:21;;;;;;;;;;;;;;;15.87;44.26;99597.94;4483196;32;34515;-86
2021/12/31 01:39:48;;;;;;;;;;;;;;;16.01;43.93;99588.31;4482971;32;33181;-85
2021/12/31 01:42:17;;;;;;;;;;;;;;;15.31;45.28;99591.88;4482605;32;34218;-83
2021/12/31 01:44:55;;;;;;;;;;;;;;;15.12;46.01;99597.94;4481482;32;34087;-84
2021/12/31 01:47:33;;;;;;;;;;;;;;;15.52;44.97;99598.81;4483272;32;34318;-85
2021/12/31 01:50:04;;;;;;;;;;;;;;;14.96;46.30;99597.87;4481792;32;34017;-85
2021/12/31 01:52:32;;;;;;;;;;;;;;;15.17;46.22;99593.59;4482561;31;35057;-85
2021/12/31 01:54:59;;;;;;;;;;;;;;;15.50;45.29;99593.59;4482805;32;34849;-86
2021/12/31 01:57:27;;;;;;;;;;;;;;;15.02;46.31;99595.31;4481475;32;35062;-86
2021/12/31 01:59:54;;;;;;;;;;;;;;;15.48;45.31;99595.34;4481610;32;34245;-86
2021/12/31 02:02:21;;;;;;;;;;;;;;;15.70;44.77;99600.59;4482298;32;34570;-86
2021/12/31 02:04:48;;;;;;;;;;;;;;;15.78;44.41;99588.38;4481595;32;33871;-85
2021/12/31 02:07:16;;;;;;;;;;;;;;;16.00;43.92;99584.84;4482582;32;33650;-86
2021/12/31 02:09:48;;;;;;;;;;;;;;;15.85;44.15;99595.34;4482708;32;33113;-86
2021/12/31 02:12:16;;;;;;;;;;;;;;;15.64;44.39;99598.81;4482307;32;34064;-85
2021/12/31 02:14:43;;;;;;;;;;;;;;;15.11;45.92;99601.41;4482224;32;35019;-85
2021/12/31 02:17:11;;;;;;;;;;;;;;;15.30;45.56;99606.66;4482525;32;34740;-85
2021/12/31 02:19:38;;;;;;;;;;;;;;;15.31;45.42;99597.09;4482391;32;33602;-85
2021/12/31 02:22:06;;;;;;;;;;;;;;;15.65;44.65;99584.91;4482713;32;35099;-85
2021/12/31 02:24:36;;;;;;;;;;;;;;;15.46;45.22;99585.78;4482398;32;34014;-85
2021/12/31 02:27:03;;;;;;;;;;;;;;;15.45;45.32;99587.50;4482437;32;35122;-86
2021/12/31 02:29:31;;;;;;;;;;;;;;;15.61;45.03;99584.88;4481835;32;32885;-85
2021/12/31 02:31:59;;;;;;;;;;;;;;;15.49;45.29;99589.25;4482412;32;34131;-85
2021/12/31 02:34:27;;;;;;;;;;;;;;;15.48;45.27;99587.50;4482157;32;34279;-85
2021/12/31 02:36:55;;;;;;;;;;;;;;;15.33;45.84;99579.66;4482266;32;34933;-85
2021/12/31 02:39:22;;;;;;;;;;;;;;;15.57;45.23;99574.44;4481825;32;34258;-84
2021/12/31 02:41:49;;;;;;;;;;;;;;;15.96;44.09;99572.66;4482252;32;34231;-85
2021/12/31 02:44:16;;;;;;;;;;;;;;;15.31;45.06;99570.97;4481548;32;35783;-85
2021/12/31 02:46:43;;;;;;;;;;;;;;;15.55;44.58;99570.94;4482118;32;33900;-85
2021/12/31 02:49:11;;;;;;;;;;;;;;;15.87;43.75;99577.03;4482289;32;34398;-85
2021/12/31 02:51:38;;;;;;;;;;;;;;;15.96;43.03;99569.19;4481991;32;35249;-86
2021/12/31 02:54:06;;;;;;;;;;;;;;;16.00;42.86;99550.84;4481627;32;34025;-86
2021/12/31 02:56:36;;;;;;;;;;;;;;;16.01;42.50;99555.19;4482382;32;34691;-85
2021/12/31 02:59:03;;;;;;;;;;;;;;;15.91;42.41;99553.50;4482617;32;33076;-85
2021/12/31 03:01:30;;;;;;;;;;;;;;;15.96;42.22;99549.13;4483207;32;34744;-86
2021/12/31 03:03:58;;;;;;;;;;;;;;;16.05;41.96;99546.47;4483474;32;35232;-84
2021/12/31 03:06:25;;;;;;;;;;;;;;;15.66;42.80;99554.41;4483991;32;34129;-85
2021/12/31 03:08:53;;;;;;;;;;;;;;;15.80;42.42;99545.69;4484521;32;33507;-84
2021/12/31 03:11:21;;;;;;;;;;;;;;;15.86;42.08;99547.41;4483044;32;34122;-85
2021/12/31 03:13:52;;;;;;;;;;;;;;;15.89;41.84;99554.38;4482192;32;34269;-85
2021/12/31 03:16:20;;;;;;;;;;;;;;;15.91;41.69;99556.12;4483968;32;34540;-86
2021/12/31 03:18:48;;;;;;;;;;;;;;;15.54;42.06;99557.88;4484378;32;33726;-85
2021/12/31 03:21:22;;;;;;;;;;;;;;;15.53;42.10;99550.91;4484091;32;35036;-84
2021/12/31 03:23:50;;;;;;;;;;;;;;;15.64;41.87;99553.50;4482537;31;35477;-85
2021/12/31 03:26:17;;;;;;;;;;;;;;;15.71;41.70;99552.66;4484125;32;33796;-86
2021/12/31 03:28:44;;;;;;;;;;;;;;;15.15;43.03;99545.69;4484246;32;34246;-85
2021/12/31 03:31:12;;;;;;;;;;;;;;;15.40;42.06;99546.56;4484129;32;34734;-85
2021/12/31 03:33:39;;;;;;;;;;;;;;;15.35;42.05;99535.28;4483040;32;34784;-85
2021/12/31 03:36:07;;;;;;;;;;;;;;;15.05;42.89;99543.09;4482637;32;34670;-84
2021/12/31 03:38:34;;;;;;;;;;;;;;;14.55;44.96;99549.09;4483989;32;33594;-85
2021/12/31 03:41:01;;;;;;;;;;;;;;;14.87;44.06;99556.12;4483876;32;35051;-85
2021/12/31 03:43:29;;;;;;;;;;;;;;;13.24;48.30;99556.16;4483973;32;34209;-86
2021/12/31 03:45:57;;;;;;;;;;;;;;;14.72;44.63;99543.03;4483772;31;34283;-86
2021/12/31 03:48:24;;;;;;;;;;;;;;;15.01;43.83;99557.03;4483997;32;33576;-85
2021/12/31 03:50:51;;;;;;;;;;;;;;;14.80;44.21;99556.97;4483630;32;34148;-85
2021/12/31 03:53:19;;;;;;;;;;;;;;;14.54;44.60;99552.56;4483784;32;34328;-85
2021/12/31 03:55:46;;;;;;;;;;;;;;;14.84;43.87;99548.28;4484056;32;34552;-84
2021/12/31 03:58:14;;;;;;;;;;;;;;;14.57;44.66;99549.97;4482872;32;34738;-86
2021/12/31 04:00:41;;;;;;;;;;;;;;;14.76;44.36;99555.22;4482433;32;34924;-85
2021/12/31 04:03:10;;;;;;;;;;;;;;;14.93;43.92;99556.16;4482593;32;35403;-86
2021/12/31 04:05:39;;;;;;;;;;;;;;;14.73;44.40;99557.81;4483495;32;34332;-85
2021/12/31 04:08:08;;;;;;;;;;;;;;;14.99;43.90;99563.97;4483398;32;34508;-85
2021/12/31 04:10:35;;;;;;;;;;;;;;;15.01;43.97;99557.03;4481850;32;34992;-83
2021/12/31 04:13:03;;;;;;;;;;;;;;;15.21;43.50;99556.16;4482874;32;35192;-84
2021/12/31 04:15:30;;;;;;;;;;;;;;;14.79;43.96;99555.25;4483976;32;35000;-86
2021/12/31 04:17:57;;;;;;;;;;;;;;;14.61;44.59;99558.66;4483269;32;32016;-84
2021/12/31 04:20:48;;;;;;;;;;;;;;;15.06;43.61;99557.00;4483595;32;33738;-84
2021/12/31 04:23:27;;;;;;;;;;;;;;;15.06;43.54;99554.41;4483566;32;34140;-85
2021/12/31 04:25:55;;;;;;;;;;;;;;;14.96;43.66;99550.03;4483460;32;34291;-86
2021/12/31 04:28:23;;;;;;;;;;;;;;;15.11;43.43;99554.41;4481989;31;33404;-85
2021/12/31 04:30:50;;;;;;;;;;;;;;;15.12;43.44;99559.66;4481902;32;34353;-84
2021/12/31 04:33:17;;;;;;;;;;;;;;;15.23;43.30;99551.81;4484024;32;34833;-85
2021/12/31 04:35:45;;;;;;;;;;;;;;;15.02;43.54;99556.12;4483399;32;34561;-85
2021/12/31 04:38:12;;;;;;;;;;;;;;;14.64;44.42;99555.22;4483389;32;33245;-84
2021/12/31 04:40:39;;;;;;;;;;;;;;;14.51;45.05;99559.53;4482111;32;34007;-84
2021/12/31 04:43:07;;;;;;;;;;;;;;;14.93;44.03;99563.97;4483638;32;34202;-85
2021/12/31 04:45:34;;;;;;;;;;;;;;;14.86;44.16;99567.44;4483426;32;34655;-85
2021/12/31 04:48:02;;;;;;;;;;;;;;;15.04;44.21;99567.47;4483355;32;34109;-85
2021/12/31 04:50:30;;;;;;;;;;;;;;;15.22;43.77;99560.50;4483243;32;34808;-85
2021/12/31 04:52:57;;;;;;;;;;;;;;;15.04;44.44;99561.38;4483575;32;33967;-85
2021/12/31 04:55:24;;;;;;;;;;;;;;;14.95;44.62;99569.19;4483283;32;34712;-84
2021/12/31 04:57:52;;;;;;;;;;;;;;;14.90;44.77;99566.56;4483497;32;33712;-85
2021/12/31 05:00:19;;;;;;;;;;;;;;;14.47;45.88;99557.72;4482930;32;35182;-85
2021/12/31 05:02:46;;;;;;;;;;;;;;;14.74;46.00;99557.84;4482052;32;34405;-85
2021/12/31 05:05:14;;;;;;;;;;;;;;;14.96;45.58;99558.72;4483332;32;34953;-84
2021/12/31 05:07:41;;;;;;;;;;;;;;;15.15;45.16;99558.75;4483408;32;33948;-85
2021/12/31 05:10:08;;;;;;;;;;;;;;;15.13;45.11;99560.50;4482958;32;33702;-84
2021/12/31 05:12:38;;;;;;;;;;;;;;;15.02;45.42;99563.97;4482177;32;34186;-85
2021/12/31 05:15:07;;;;;;;;;;;;;;;15.36;44.70;99571.81;4483454;32;33763;-85
2021/12/31 05:17:35;;;;;;;;;;;;;;;15.24;45.06;99564.00;4483533;32;32853;-84
2021/12/31 05:20:03;;;;;;;;;;;;;;;15.38;44.64;99566.59;4480350;32;33754;-84
2021/12/31 05:22:30;;;;;;;;;;;;;;;15.11;45.51;99564.84;4483444;32;34186;-85
2021/12/31 05:24:57;;;;;;;;;;;;;;;15.09;45.84;99575.31;4483142;32;34292;-84
2021/12/31 05:27:25;;;;;;;;;;;;;;;15.06;46.10;99567.47;4483145;32;33610;-85
2021/12/31 05:29:52;;;;;;;;;;;;;;;15.04;46.42;99571.81;4483481;32;35094;-85
2021/12/31 05:32:19;;;;;;;;;;;;;;;15.09;46.24;99576.16;4482886;32;34420;-86
2021/12/31 05:34:47;;;;;;;;;;;;;;;15.01;46.20;99575.28;4482556;32;33771;-86
2021/12/31 05:37:14;;;;;;;;;;;;;;;15.03;46.37;99576.16;4483047;32;33524;-86
2021/12/31 05:39:41;;;;;;;;;;;;;;;15.08;46.27;99577.03;4483286;32;34414;-86
2021/12/31 05:42:09;;;;;;;;;;;;;;;15.15;46.03;99582.25;4482889;32;34460;-85
2021/12/31 05:44:36;;;;;;;;;;;;;;;14.69;46.94;99582.19;4482871;32;34480;-85
2021/12/31 05:47:03;;;;;;;;;;;;;;;14.87;46.82;99587.44;4482854;32;34981;-85
2021/12/31 05:49:31;;;;;;;;;;;;;;;15.12;46.16;99585.75;4482751;31;34326;-86
2021/12/31 05:51:58;;;;;;;;;;;;;;;15.08;46.30;99587.50;4483096;32;34273;-85
2021/12/31 05:54:26;;;;;;;;;;;;;;;14.97;46.95;99576.16;4482669;32;33867;-83
2021/12/31 05:56:54;;;;;;;;;;;;;;;14.88;47.15;99591.78;4482447;32;35199;-85
2021/12/31 05:59:21;;;;;;;;;;;;;;;15.03;46.73;99590.94;4482854;32;34306;-85
2021/12/31 06:01:49;;;;;;;;;;;;;;;15.09;46.37;99584.00;4482890;32;34594;-85
2021/12/31 06:04:16;;;;;;;;;;;;;;;14.94;46.88;99596.16;4481965;32;34032;-86
2021/12/31 06:06:44;;;;;;;;;;;;;;;15.02;46.84;99599.66;4482862;32;33930;-85
2021/12/31 06:09:13;;;;;;;;;;;;;;;15.06;46.68;99596.19;4482630;32;33990;-85
2021/12/31 06:11:41;;;;;;;;;;;;;;;15.01;46.67;99595.31;4482696;32;35337;-86
2021/12/31 06:14:09;;;;;;;;;;;;;;;15.34;46.06;99591.84;4482207;32;34330;-86
2021/12/31 06:16:41;;;;;;;;;;;;;;;15.40;45.63;99586.62;4482673;32;34200;-86
2021/12/31 06:19:09;;;;;;;;;;;;;;;15.16;45.62;99590.13;4481640;32;33833;-86
2021/12/31 06:21:40;;;;;;;;;;;;;;;15.31;45.45;99591.88;4482697;32;34489;-85
2021/12/31 06:24:08;;;;;;;;;;;;;;;15.30;45.53;99605.78;4482459;32;34005;-86
2021/12/31 06:26:36;;;;;;;;;;;;;;;15.55;44.63;99601.44;4481148;32;33119;-86
2021/12/31 06:29:03;;;;;;;;;;;;;;;15.05;45.46;99604.91;4481078;32;33694;-86
2021/12/31 06:31:32;;;;;;;;;;;;;;;15.06;45.53;99602.28;4482877;32;34977;-85
2021/12/31 06:33:59;;;;;;;;;;;;;;;15.02;45.52;99605.75;4484045;32;34356;-86
2021/12/31 06:36:26;;;;;;;;;;;;;;;14.90;45.62;99605.72;4483987;32;33702;-85
2021/12/31 06:38:54;;;;;;;;;;;;;;;14.49;46.21;99605.56;4484494;32;32967;-85
2021/12/31 06:41:21;;;;;;;;;;;;;;;14.60;46.08;99603.91;4478892;32;35201;-85
2021/12/31 06:43:48;;;;;;;;;;;;;;;14.80;45.50;99599.59;4475958;32;34033;-85
2021/12/31 06:46:16;;;;;;;;;;;;;;;14.92;45.12;99603.13;4483292;32;32816;-85
2021/12/31 06:48:44;;;;;;;;;;;;;;;14.87;44.83;99610.94;4483934;31;33820;-86
2021/12/31 06:51:11;;;;;;;;;;;;;;;14.52;45.78;99619.53;4484340;32;34470;-85
2021/12/31 06:53:39;;;;;;;;;;;;;;;14.73;45.55;99604.81;4484065;32;33904;-85
2021/12/31 06:56:06;;;;;;;;;;;;;;;14.32;46.41;99603.78;4483827;32;33202;-84
2021/12/31 06:58:33;;;;;;;;;;;;;;;14.42;46.31;99604.66;4484044;32;34896;-84
2021/12/31 07:01:01;;;;;;;;;;;;;;;14.39;46.36;99612.47;4483632;31;35126;-83
2021/12/31 07:03:28;;;;;;;;;;;;;;;14.01;46.90;99620.97;4484230;32;34671;-84
2021/12/31 07:05:55;;;;;;;;;;;;;;;14.06;47.44;99629.69;4484376;32;33992;-85
2021/12/31 07:08:25;;;;;;;;;;;;;;;14.22;47.69;99638.47;4484321;32;34301;-84
2021/12/31 07:10:53;;;;;;;;;;;;;;;13.88;48.96;99638.28;4483762;32;35005;-84
2021/12/31 07:13:20;;;;;;;;;;;;;;;14.35;48.00;99636.78;4483915;32;34811;-86
2021/12/31 07:15:49;;;;;;;;;;;;;;;14.39;47.47;99630.72;4484073;32;33409;-84
2021/12/31 07:18:21;;;;;;;;;;;;;;;14.28;47.46;99645.44;4484484;32;34962;-83
2021/12/31 07:20:48;;;;;;;;;;;;;;;14.66;46.93;99640.47;4483673;32;33879;-85
2021/12/31 07:23:17;;;;;;;;;;;;;;;14.56;47.20;99647.38;4483996;32;34699;-84
2021/12/31 07:25:44;;;;;;;;;;;;;;;14.52;46.92;99647.38;4482854;32;34375;-86
2021/12/31 07:28:12;;;;;;;;;;;;;;;14.52;47.29;99655.19;4484412;32;34970;-83
2021/12/31 07:30:39;;;;;;;;;;;;;;;14.42;47.92;99649.00;4482019;32;34352;-85
2021/12/31 07:33:13;;;;;;;;;;;;;;;14.50;48.19;99657.78;4484345;32;34341;-84
2021/12/31 07:35:40;;;;;;;;;;;;;;;14.72;47.87;99650.03;4482741;32;33209;-84
2021/12/31 07:38:11;;;;;;;;;;;;;;;14.56;48.03;99654.34;4483656;32;34695;-84
2021/12/31 07:40:39;;;;;;;;;;;;;;;14.70;47.78;99651.75;4482476;32;34091;-84
2021/12/31 07:43:07;;;;;;;;;;;;;;;14.79;47.81;99659.66;4483553;32;35017;-84
2021/12/31 07:45:34;;;;;;;;;;;;;;;14.91;47.72;99654.47;4483793;32;33255;-83
2021/12/31 07:48:02;;;;;;;;;;;;;;;15.29;46.93;99651.94;4482301;31;34068;-85
2021/12/31 07:50:30;;;;;;;;;;;;;;;14.86;48.03;99650.97;4483771;32;34157;-83
2021/12/31 07:52:57;;;;;;;;;;;;;;;15.00;48.17;99649.28;4483672;32;33807;-85
2021/12/31 07:55:24;;;;;;;;;;;;;;;14.85;48.97;99659.69;4483952;32;34333;-83
2021/12/31 07:57:52;;;;;;;;;;;;;;;15.17;48.24;99651.91;4483862;32;34217;-84
2021/12/31 08:00:19;;;;;;;;;;;;;;;14.79;49.49;99654.44;4483578;32;33900;-83
2021/12/31 08:02:46;;;;;;;;;;;;;;;14.96;50.69;99649.25;4483726;32;34935;-82
2021/12/31 08:05:13;;;;;;;;;;;;;;;15.28;50.21;99660.66;4483561;32;33128;-85
2021/12/31 08:07:41;;;;;;;;;;;;;;;15.16;51.69;99664.97;4483583;32;33780;-85
2021/12/31 08:10:08;;;;;;;;;;;;;;;14.41;54.30;99678.56;4483251;32;34119;-81
2021/12/31 08:12:53;;;;;;;;;;;;;;;14.96;53.32;99691.00;4482762;32;34147;-84
2021/12/31 08:15:20;;;;;;;;;;;;;;;14.65;55.21;99679.59;4482959;32;33790;-82
2021/12/31 08:17:47;;;;;;;;;;;;;;;14.76;55.00;99678.75;4482842;32;33791;-84
2021/12/31 08:20:14;;;;;;;;;;;;;;;14.58;55.83;99681.28;4482755;32;34406;-84
2021/12/31 08:22:42;;;;;;;;;;;;;;;15.01;54.81;99684.97;4483154;32;33700;-83
2021/12/31 08:25:09;;;;;;;;;;;;;;;15.22;53.96;99672.81;4482667;32;33479;-84
2021/12/31 08:27:39;;;;;;;;;;;;;;;14.51;57.44;99687.38;4483619;32;35220;-83
2021/12/31 08:30:08;;;;;;;;;;;;;;;14.10;58.58;99683.59;4481550;32;34888;-84
2021/12/31 08:32:35;;;;;;;;;;;;;;;14.08;59.87;99687.06;4481805;32;33451;-80
2021/12/31 08:35:03;;;;;;;;;;;;;;;14.62;58.16;99676.97;4481147;32;32925;-83
2021/12/31 08:37:31;;;;;;;;;;;;;;;14.48;58.73;99689.94;4482592;32;34111;-83
2021/12/31 08:39:58;;;;;;;;;;;;;;;14.09;60.43;99681.87;4483649;32;34371;-84
2021/12/31 08:42:25;;;;;;;;;;;;;;;14.95;57.39;99679.69;4483281;32;33523;-84
2021/12/31 08:44:53;;;;;;;;;;;;;;;14.99;57.25;99673.63;4483568;32;34071;-83
2021/12/31 08:47:27;;;;;;;;;;;;;;;14.47;59.74;99682.94;4483439;31;34348;-83
2021/12/31 08:49:55;;;;;;;;;;;;;;;13.54;62.70;99681.44;4482369;32;35267;-83
2021/12/31 08:52:22;;;;;;;;;;;;;;;13.95;61.54;99682.63;4483307;32;33916;-83
2021/12/31 08:54:49;;;;;;;;;;;;;;;14.49;60.00;99676.91;4482190;32;33348;-85
2021/12/31 08:57:16;;;;;;;;;;;;;;;14.25;61.07;99689.78;4483187;32;34356;-83
2021/12/31 08:59:44;;;;;;;;;;;;;;;14.41;60.28;99683.78;4483478;32;34387;-85
2021/12/31 09:02:11;;;;;;;;;;;;;;;14.65;59.90;99676.97;4481910;32;34111;-83
2021/12/31 09:04:39;;;;;;;;;;;;;;;15.00;58.72;99679.72;4483395;32;33478;-84
2021/12/31 09:07:06;;;;;;;;;;;;;;;14.71;59.35;99683.09;4483713;32;34975;-83
2021/12/31 09:09:33;;;;;;;;;;;;;;;14.77;59.93;99680.53;4469006;32;34837;-85
2021/12/31 09:12:00;;;;;;;;;;;;;;;14.45;60.96;99695.13;4483288;32;34327;-84
2021/12/31 09:14:28;;;;;;;;;;;;;;;14.91;59.78;99688.41;4483324;32;33572;-84
2021/12/31 09:16:55;;;;;;;;;;;;;;;15.16;58.65;99688.50;4483264;32;35026;-85
2021/12/31 09:19:23;;;;;;;;;;;;;;;14.87;59.50;99686.66;4483631;32;34965;-82
2021/12/31 09:21:50;;;;;;;;;;;;;;;15.31;58.85;99694.63;4483391;32;33826;-85
2021/12/31 09:24:17;;;;;;;;;;;;;;;15.55;58.07;99693.78;4483142;32;33482;-85
2021/12/31 09:26:44;;;;;;;;;;;;;;;16.03;56.51;99684.22;4483043;32;34319;-83
2021/12/31 09:29:16;;;;;;;;;;;;;;;15.50;58.20;99687.69;4483241;32;34533;-85
2021/12/31 09:31:44;;;;;;;;;;;;;;;15.46;57.89;99679.84;4483158;32;34298;-85
2021/12/31 09:34:11;;;;;;;;;;;;;;;15.87;57.64;99687.69;4483143;32;33439;-84
2021/12/31 09:36:38;;;;;;;;;;;;;;;16.02;56.18;99679.88;4483154;32;34324;-85
2021/12/31 09:39:06;;;;;;;;;;;;;;;15.93;56.76;99682.47;4482944;32;33991;-86
2021/12/31 09:41:33;;;;;;;;;;;;;;;16.81;54.04;99685.78;4482898;32;34222;-85
2021/12/31 09:44:00;;;;;;;;;;;;;;;16.54;54.93;99689.34;4483270;32;33485;-84
2021/12/31 09:46:27;;;;;;;;;;;;;;;17.28;53.05;99676.81;4483062;32;35156;-86
2021/12/31 09:48:55;;;;;;;;;;;;;;;17.47;52.34;99678.44;4481971;32;34470;-84
2021/12/31 09:51:25;;;;;;;;;;;;;;;17.62;52.04;99681.84;4460977;32;34324;-83
2021/12/31 09:53:58;;;;;;;;;;;;;;;17.34;52.32;99681.13;4478130;32;33652;-85
2021/12/31 09:56:26;;;;;;;;;;;;;;;17.49;52.38;99681.91;4470778;32;34330;-84
2021/12/31 09:58:53;;;;;;;;;;;;;;;15.78;57.73;99692.94;4480155;32;35261;-83
2021/12/31 10:01:20;;;;;;;;;;;;;;;16.64;55.30;99687.59;4480462;32;34325;-86
2021/12/31 10:03:54;;;;;;;;;;;;;;;17.46;52.94;99687.19;4481804;32;33448;-82
2021/12/31 10:06:25;;;;;;;;;;;;;;;17.43;53.13;99676.72;4470999;32;35304;-84
2021/12/31 10:08:57;;;;;;;;;;;;;;;17.49;52.74;99676.66;4472571;32;34426;-84
2021/12/31 10:11:24;;;;;;;;;;;;;;;17.34;53.22;99671.53;4483026;32;34458;-83
2021/12/31 10:13:51;;;;;;;;;;;;;;;16.97;54.54;99665.63;4477327;32;33946;-83
2021/12/31 10:16:19;;;;;;;;;;;;;;;17.29;53.87;99662.84;4467086;32;33802;-83
2021/12/31 10:18:47;;;;;;;;;;;;;;;17.13;54.24;99661.19;4467169;32;35352;-83
2021/12/31 10:21:19;;;;;;;;;;;;;;;16.85;55.09;99661.31;4465764;32;33964;-82
2021/12/31 10:23:47;;;;;;;;;;;;;;;16.06;57.17;99659.78;4469651;32;33557;-83
2021/12/31 10:26:15;;;;;;;;;;;;;;;16.09;56.89;99651.06;4482049;32;34915;-83
2021/12/31 10:28:52;;;;;;;;;;;;;;;15.90;58.20;99653.72;4482355;32;34103;-85
2021/12/31 10:31:19;;;;;;;;;;;;;;;17.06;55.23;99652.50;4482542;32;34365;-85
2021/12/31 10:33:47;;;;;;;;;;;;;;;16.16;57.26;99651.06;4481992;32;34427;-83
2021/12/31 10:36:32;;;;;;;;;;;;;;;17.27;54.35;99644.50;4482734;32;34141;-85
2021/12/31 10:39:02;;;;;;;;;;;;;;;17.17;54.58;99639.34;4482127;32;34440;-85
2021/12/31 10:41:30;;;;;;;;;;;;;;;17.41;53.89;99635.66;4481060;32;34471;-86
2021/12/31 10:43:58;;;;;;;;;;;;;;;16.94;54.65;99642.09;4479434;32;32257;-84
2021/12/31 10:46:26;;;;;;;;;;;;;;;17.50;53.06;99640.81;4466354;32;34646;-83
2021/12/31 10:48:54;;;;;;;;;;;;;;;17.71;52.27;99645.03;4466637;32;34353;-84
2021/12/31 10:51:40;;;;;;;;;;;;;;;18.24;51.19;99648.94;4473278;32;34155;-86
2021/12/31 10:54:31;;;;;;;;;;;;;;;17.61;53.38;99654.72;4480183;32;32937;-84
2021/12/31 10:56:58;;;;;;;;;;;;;;;17.75;52.93;99663.38;4477838;32;35041;-86
2021/12/31 10:59:28;;;;;;;;;;;;;;;17.57;53.81;99663.50;4482011;32;35121;-84
2021/12/31 11:01:55;;;;;;;;;;;;;;;17.28;55.07;99663.72;4480757;32;33809;-84
2021/12/31 11:04:28;;;;;;;;;;;;;;;17.84;53.50;99662.47;4481717;32;34164;-83
2021/12/31 11:06:56;;;;;;;;;;;;;;;18.44;51.41;99648.72;4480119;32;34343;-84
2021/12/31 11:09:24;;;;;;;;;;;;;;;18.44;52.03;99644.31;4480622;32;33376;-85
2021/12/31 11:11:52;;;;;;;;;;;;;;;19.20;49.65;99639.84;4481817;32;33919;-83
2021/12/31 11:14:20;;;;;;;;;;;;;;;18.75;50.45;99649.22;4479424;32;32884;-84
2021/12/31 11:16:47;;;;;;;;;;;;;;;19.26;49.40;99651.19;4477139;32;34881;-84
2021/12/31 11:19:15;;;;;;;;;;;;;;;17.15;54.02;99643.69;4481073;32;34915;-83
2021/12/31 11:21:43;;;;;;;;;;;;;;;18.46;50.87;99639.06;4472218;32;34114;-83
2021/12/31 11:24:26;;;;;;;;;;;;;;;18.94;49.92;99635.00;4467313;32;33190;-85
2021/12/31 11:26:54;;;;;;;;;;;;;;;18.99;50.33;99631.44;4467244;32;33803;-84
2021/12/31 11:29:21;;;;;;;;;;;;;;;17.92;52.24;99646.66;4468337;32;35368;-85
2021/12/31 11:31:48;;;;;;;;;;;;;;;18.90;49.69;99633.28;4479548;32;35279;-83
2021/12/31 11:34:16;;;;;;;;;;;;;;;19.21;49.03;99632.84;4483396;32;34307;-84
2021/12/31 11:36:45;;;;;;;;;;;;;;;18.75;49.61;99640.47;4481964;32;34894;-83
2021/12/31 11:39:29;;;;;;;;;;;;;;;18.76;50.34;99629.97;4481449;32;33673;-83
2021/12/31 11:41:58;;;;;;;;;;;;;;;18.91;49.54;99629.78;4482103;32;33614;-84
2021/12/31 11:44:26;;;;;;;;;;;;;;;18.65;50.28;99635.31;4482485;32;34061;-83
2021/12/31 11:47:07;;;;;;;;;;;;;;;18.60;50.63;99623.12;4483722;32;34891;-84
2021/12/31 11:49:34;;;;;;;;;;;;;;;18.74;49.61;99629.13;4483541;32;35606;-82
2021/12/31 11:52:08;;;;;;;;;;;;;;;19.15;49.02;99630.31;4483558;32;33900;-84
2021/12/31 11:54:37;;;;;;;;;;;;;;;18.54;50.40;99628.47;4478969;32;33484;-84
2021/12/31 11:57:05;;;;;;;;;;;;;;;17.62;52.54;99635.50;4479933;32;34864;-84
2021/12/31 11:59:53;;;;;;;;;;;;;;;18.05;51.70;99629.88;4482382;32;34503;-84
2021/12/31 12:02:40;;;;;;;;;;;;;;;18.91;49.15;99619.25;4482522;32;34074;-82
2021/12/31 12:05:11;;;;;;;;;;;;;;;19.38;48.27;99617.69;4482097;32;33327;-85
2021/12/31 12:07:40;;;;;;;;;;;;;;;18.98;49.37;99621.78;4482372;32;34746;-84
2021/12/31 12:10:09;;;;;;;;;;;;;;;19.25;48.21;99618.78;4483654;32;34260;-82
2021/12/31 12:12:37;;;;;;;;;;;;;;;17.56;52.47;99626.81;4482906;32;34036;-84
2021/12/31 12:15:04;;;;;;;;;;;;;;;17.90;51.95;99620.41;4482861;32;33558;-84
2021/12/31 12:17:32;;;;;;;;;;;;;;;19.21;48.39;99617.09;4483303;32;34544;-84
2021/12/31 12:20:02;;;;;;;;;;;;;;;18.70;49.81;99615.16;4482416;32;35274;-83
2021/12/31 12:22:39;;;;;;;;;;;;;;;17.71;52.37;99617.06;4480487;32;33924;-84
2021/12/31 12:25:08;;;;;;;;;;;;;;;18.02;51.86;99624.66;4483647;32;32808;-85
2021/12/31 12:27:35;;;;;;;;;;;;;;;17.81;52.62;99614.41;4478058;32;34329;-83
2021/12/31 12:30:06;;;;;;;;;;;;;;;18.29;51.30;99606.88;4482585;32;34299;-81
2021/12/31 12:35:16;;;;;;;;;;;;;;;17.46;53.46;99612.91;4483311;32;33952;-83
2021/12/31 12:37:44;;;;;;;;;;;;;;;17.09;54.82;99607.09;4482771;32;34989;-84
2021/12/31 12:40:11;;;;;;;;;;;;;;;17.84;51.99;99603.84;4466451;32;34155;-83
2021/12/31 12:42:45;;;;;;;;;;;;;;;17.86;51.91;99605.59;4466641;32;33972;-82
2021/12/31 12:45:12;;;;;;;;;;;;;;;17.17;54.10;99600.03;4467685;32;33318;-83
2021/12/31 12:47:39;;;;;;;;;;;;;;;17.28;54.19;99606.06;4472965;31;33878;-86
2021/12/31 12:50:09;;;;;;;;;;;;;;;16.94;54.67;99611.53;4482924;32;34136;-82
2021/12/31 12:52:37;;;;;;;;;;;;;;;17.27;54.01;99604.31;4473831;32;34282;-83
2021/12/31 12:55:08;;;;;;;;;;;;;;;18.12;51.78;99596.59;4481477;32;32863;-83
2021/12/31 12:57:36;;;;;;;;;;;;;;;17.77;52.44;99595.19;4481352;32;34163;-82
2021/12/31 13:00:04;;;;;;;;;;;;;;;17.98;51.83;99586.22;4483031;32;34567;-83